AirNav   TITAN Aviation Fuels
 
 1454 users online  

96IS Hildreth Air Park
Sidell, Illinois, USA

GOING TO SIDELL?


FAA INFORMATION EFFECTIVE 01 DECEMBER 2022

Location

FAA Identifier: 96IS
Lat/Long: 39-52-21.3050N 087-50-39.0300W
39-52.355083N 087-50.650500W
39.8725847,-87.8441750
(estimated)
Elevation: 734 ft. / 224 m (estimated)
From city: 3 miles SW of SIDELL, IL
Time zone: UTC -6 (UTC -5 during Daylight Saving Time)
Zip code: 61876

Airport Operations

Airport use: Private use. Permission required prior to landing
Activation date: 11/1972
Control tower: no
ARTCC: CHICAGO CENTER
FSS: SAINT LOUIS FLIGHT SERVICE STATION
Attendance: UNATNDD
Wind indicator: yes
Segmented circle: no

Airport Communications

WX AWOS-3 at PRG (13 nm SE): 124.175 (217-465-4304)

Nearby radio navigation aids

VOR radial/distance  VOR name  Freq  Var
CMIr113/22.1CHAMPAIGN VORTAC110.0003E
DNVr206/28.5DANVILLE VORTAC111.0002E
TTHr308/35.8TERRE HAUTE VORTAC115.3002E

Airport Services

Runway Information

Runway N/S

Dimensions: 2640 x 70 ft. / 805 x 21 m
Surface: turf
RUNWAY N  RUNWAY S
Traffic pattern: leftleft

Airport Ownership and Management from official FAA records

Ownership: Privately-owned
Owner: DAVID H. RICHARDSON
27331 N. 700TH ST
SIDELL, IL 61876
Phone 217-887-2575
Manager: DAVID H. RICHARDSON
27331 N. 700TH ST
SIDELL, IL 61876
Phone 217-887-2575

Airport Operational Statistics

Aircraft based on the field: 1
Single engine airplanes: 1
    

Additional Remarks

FOR CD CTC CHAMPAIGN APCH AT 217-355-4069, WHEN APCH CLSD CTC CHICAGO ARTCC AT 630-906-8921

Instrument Procedures

There are no published instrument procedures at 96IS.

Some nearby airports with instrument procedures:

KPRG - Edgar County Airport (13 nm SE)
KCMI - University of Illinois/Willard Airport (22 nm NW)
KDNV - Vermilion Regional Airport (23 nm NE)
C16 - Frasca Field Airport (23 nm NW)
KTIP - Rantoul National Aviation Center Airport-Frank Elliott Field (29 nm NW)
 
Loc | Ops | Rwys | IFR | FBO | Links
Com | Nav | Svcs | Stats | Notes
Area around 96IS (Hildreth Air Park)
 
Road maps at: MapQuest Bing Google
 
Aerial photo
No photo
 
Sectional chart

 
Airport distance calculator
Flying to Hildreth Air Park? Find the distance to fly.

From to 96IS

Sunrise and sunset
Times for 07-Dec-2022
 Local
(UTC-6)
 Zulu
(UTC)
Morning civil twilight06:3012:30
Sunrise07:0013:00
Sunset16:2522:25
Evening civil twilight16:5622:56

Current date and time
Zulu (UTC)  07-Dec-2022 14:47:26
Local (UTC-6)  07-Dec-2022 08:47:26
 
METAR
KPRG 
13nm SE 
071435Z AUTO 00000KT 2SM BR SCT003 SCT010 OVC017 03/03 A3024 RMK AO2 T00340034
KCMI 
22nm NW 
071423Z 35004KT 1 1/2SM BR OVC003 06/04 A3022 RMK AO2 T00560044
KDNV 
23nm NE 
071435Z AUTO 34003KT 3SM BR OVC011 06/04 A3023 RMK AO2 T00560043
TAF
KCMI 
22nm NW 
071327Z 0713/0812 36004KT 4SM BR OVC010 TEMPO 0713/0714 2SM BR OVC005 FM071500 VRB03KT 6SM BR BKN007 FM071800 33005KT P6SM BKN018 FM080000 04003KT P6SM OVC012 FM080800 06008KT P6SM OVC007
NOTAMs
Click for the latest NOTAMs
NOTAMs are issued by the DoD/FAA and will open in a separate window not controlled by AirNav.

 

 
 

Would you like to see your business listed on this page?

 If your business provides an interesting product or service to pilots, flight crews, aircraft, or users of the Hildreth Air Park, you should consider listing it here.  To start the listing process, click on the button below
 
Add a business
 

Other Pages about Hildreth Air Park

Update a link
 
Copyright © AirNav, LLC. All rights reserved. Privacy Policy  Contact